createdAt,value
2019-05-12T00:00:59.769Z,10.93
2019-05-12T00:03:27.701Z,10.37
2019-05-12T00:05:57.801Z,13.07
2019-05-12T00:08:27.570Z,8.27
2019-05-12T00:10:54.760Z,9.00
2019-05-12T00:13:22.172Z,10.43
2019-05-12T00:15:49.539Z,11.83
2019-05-12T00:18:18.012Z,14.50
2019-05-12T00:20:47.649Z,13.37
2019-05-12T00:23:24.936Z,13.70
2019-05-12T00:25:47.891Z,13.33
2019-05-12T00:28:14.895Z,12.00
2019-05-12T00:30:48.567Z,12.73
2019-05-12T00:33:17.822Z,11.53
2019-05-12T00:35:44.997Z,10.23
2019-05-12T00:38:12.446Z,9.10
2019-05-12T00:40:39.938Z,13.17
2019-05-12T00:43:08.702Z,13.73
2019-05-12T00:45:38.921Z,13.03
2019-05-12T00:48:09.559Z,13.17
2019-05-12T00:50:39.623Z,11.93
2019-05-12T00:53:09.201Z,13.80
2019-05-12T00:55:38.117Z,14.27
2019-05-12T00:58:08.340Z,16.77
2019-05-12T01:00:40.711Z,14.37
2019-05-12T01:03:08.765Z,15.57
2019-05-12T01:05:38.355Z,14.33
2019-05-12T01:08:09.060Z,12.57
2019-05-12T01:10:35.815Z,14.57
2019-05-12T01:13:03.238Z,12.27
2019-05-12T01:15:30.572Z,15.93
2019-05-12T01:17:58.599Z,11.80
2019-05-12T01:20:28.259Z,10.20
2019-05-12T01:22:58.021Z,11.70
2019-05-12T01:25:25.993Z,14.97
2019-05-12T01:27:53.328Z,13.93
2019-05-12T01:30:21.084Z,11.20
2019-05-12T01:32:53.723Z,17.13
2019-05-12T01:35:21.438Z,12.57
2019-05-12T01:37:49.024Z,11.80
2019-05-12T01:43:48.781Z,10.27
2019-05-12T01:46:19.119Z,13.53
2019-05-12T01:48:52.283Z,10.43
2019-05-12T01:51:20.302Z,11.43
2019-05-12T01:53:48.252Z,12.00
2019-05-12T01:56:18.285Z,8.73
2019-05-12T01:58:48.282Z,8.40
2019-05-12T02:01:15.302Z,9.63
2019-05-12T02:03:43.013Z,11.77
2019-05-12T02:06:12.681Z,14.73
2019-05-12T02:08:48.714Z,8.83
2019-05-12T02:11:37.836Z,14.97
2019-05-12T02:14:06.355Z,9.03
2019-05-12T02:16:34.388Z,9.60
2019-05-12T02:19:01.932Z,12.83
2019-05-12T02:21:30.754Z,12.27
2019-05-12T02:23:58.407Z,7.67
2019-05-12T02:26:25.999Z,10.80
2019-05-12T02:28:53.418Z,7.97
2019-05-12T02:31:21.047Z,8.90
2019-05-12T02:33:48.483Z,18.43
2019-05-12T02:36:15.770Z,10.47
2019-05-12T02:38:45.260Z,7.63
2019-05-12T02:41:15.491Z,11.73
2019-05-12T02:44:14.898Z,14.73
2019-05-12T02:46:44.673Z,11.13
2019-05-12T02:49:15.543Z,10.87
2019-05-12T02:52:05.106Z,15.37
2019-05-12T02:54:50.807Z,9.63
2019-05-12T02:57:14.494Z,9.87
2019-05-12T03:00:10.114Z,12.40
2019-05-12T03:02:48.176Z,13.47
2019-05-12T03:09:55.059Z,9.13
2019-05-12T03:12:25.801Z,10.93
2019-05-12T03:15:05.809Z,10.97
2019-05-12T03:18:05.614Z,12.03
2019-05-12T03:21:05.602Z,12.30
2019-05-12T03:28:35.540Z,18.60
2019-05-12T03:32:30.144Z,18.73
2019-05-12T03:34:58.526Z,13.50
2019-05-12T03:41:08.216Z,12.40
2019-05-12T03:43:35.632Z,11.80
2019-05-12T03:46:05.527Z,12.53
2019-05-12T03:48:34.920Z,12.13
2019-05-12T03:51:05.457Z,10.23
2019-05-12T03:53:38.594Z,9.90
2019-05-12T03:56:05.886Z,11.83
2019-05-12T03:58:34.696Z,15.33
2019-05-12T04:01:05.609Z,13.40
2019-05-12T04:03:34.633Z,13.73
2019-05-12T04:06:04.746Z,9.57
2019-05-12T04:08:34.473Z,9.90
2019-05-12T04:11:00.892Z,12.27
2019-05-12T04:13:28.221Z,10.83
2019-05-12T04:15:55.877Z,9.40
2019-05-12T04:18:24.743Z,9.40
2019-05-12T04:20:54.520Z,8.63
2019-05-12T04:23:24.523Z,9.67
2019-05-12T04:25:56.996Z,10.50
2019-05-12T04:28:20.021Z,12.50
2019-05-12T04:30:47.321Z,8.40
2019-05-12T04:33:15.486Z,9.20
2019-05-12T04:35:45.117Z,8.43
2019-05-12T04:38:14.784Z,7.97
2019-05-12T04:40:44.999Z,12.33
2019-05-12T04:43:14.314Z,9.30
2019-05-12T04:45:40.211Z,14.23
2019-05-12T04:48:07.621Z,8.27
2019-05-12T04:50:36.093Z,10.67
2019-05-12T04:53:05.900Z,9.77
2019-05-12T04:55:35.565Z,7.30
2019-05-12T04:58:04.394Z,8.73
2019-05-12T05:00:34.836Z,8.97
2019-05-12T05:03:01.417Z,9.80
2019-05-12T05:05:29.506Z,6.87
2019-05-12T05:07:56.857Z,7.93
2019-05-12T05:10:24.993Z,11.10
2019-05-12T05:12:54.090Z,10.03
2019-05-12T05:15:24.737Z,6.57
2019-05-12T05:17:50.943Z,12.10
2019-05-12T05:20:18.218Z,10.20
2019-05-12T05:22:45.472Z,8.63
2019-05-12T05:25:14.413Z,8.67
2019-05-12T05:27:43.779Z,9.57
2019-05-12T05:30:13.704Z,6.07
2019-05-12T05:32:40.473Z,9.57
2019-05-12T05:35:07.950Z,11.80
2019-05-12T05:37:36.918Z,7.87
2019-05-12T05:40:04.777Z,9.43
2019-05-12T05:42:35.528Z,7.37
2019-05-12T05:45:04.770Z,7.10
2019-05-12T05:47:33.605Z,9.13
2019-05-12T05:50:01.334Z,7.37
2019-05-12T05:52:33.318Z,6.43
2019-05-12T05:54:59.757Z,6.57
2019-05-12T05:57:29.746Z,13.77
2019-05-12T05:59:56.294Z,8.80
2019-05-12T06:02:31.847Z,7.67
2019-05-12T06:04:56.220Z,8.70
2019-05-12T06:07:25.506Z,9.13
2019-05-12T06:09:53.567Z,9.50
2019-05-12T06:12:20.620Z,5.73
2019-05-12T06:14:54.337Z,9.53
2019-05-12T06:17:17.070Z,7.97
2019-05-12T06:19:44.348Z,5.27
2019-05-12T06:22:16.392Z,7.40
2019-05-12T06:24:40.922Z,6.37
2019-05-12T06:27:15.168Z,4.90
2019-05-12T06:29:37.438Z,5.27
2019-05-12T06:32:09.280Z,6.30
2019-05-12T06:34:34.955Z,9.10
2019-05-12T06:37:11.413Z,7.60
2019-05-12T06:39:31.517Z,4.13
2019-05-12T06:42:11.557Z,3.77
2019-05-12T06:44:27.923Z,6.47
2019-05-12T06:47:02.255Z,5.47
2019-05-12T06:49:24.746Z,9.33
2019-05-12T06:51:53.712Z,4.93
2019-05-12T06:54:24.594Z,3.23
2019-05-12T06:56:58.833Z,6.53
2019-05-12T06:59:23.745Z,5.00
2019-05-12T07:01:56.012Z,4.20
2019-05-12T07:04:23.406Z,6.83
2019-05-12T07:06:54.455Z,4.17
2019-05-12T07:09:24.982Z,6.20
2019-05-12T07:11:58.847Z,5.57
2019-05-12T07:14:22.676Z,4.07
2019-05-12T07:16:53.367Z,4.60
2019-05-12T07:19:22.664Z,4.67
2019-05-12T07:21:50.784Z,4.70
2019-05-12T07:24:18.742Z,4.27
2019-05-12T07:26:48.023Z,2.87
2019-05-12T07:29:15.269Z,7.07
2019-05-12T07:31:44.138Z,3.97
2019-05-12T07:34:13.567Z,2.63
2019-05-12T07:36:44.295Z,5.03
2019-05-12T07:39:13.596Z,5.87
2019-05-12T07:41:47.760Z,5.60
2019-05-12T07:44:10.105Z,3.77
2019-05-12T07:46:39.638Z,4.23
2019-05-12T07:49:06.537Z,4.90
2019-05-12T07:51:38.847Z,3.53
2019-05-12T07:54:04.106Z,10.63
2019-05-12T07:56:33.513Z,2.80
2019-05-12T07:59:00.791Z,3.80
2019-05-12T08:01:28.050Z,4.00
2019-05-12T08:03:59.347Z,5.23
2019-05-12T08:06:24.769Z,5.43
2019-05-12T08:08:58.169Z,4.20
2019-05-12T08:11:23.256Z,3.03
2019-05-12T08:13:50.601Z,4.93
2019-05-12T08:16:19.540Z,4.57
2019-05-12T08:18:47.481Z,7.00
2019-05-12T08:21:14.744Z,3.77
2019-05-12T08:23:44.255Z,4.27
2019-05-12T08:26:18.369Z,5.00
2019-05-12T08:28:44.184Z,6.10
2019-05-12T08:31:13.979Z,6.07
2019-05-12T08:33:40.831Z,5.17
2019-05-12T08:36:15.516Z,6.33
2019-05-12T08:38:37.615Z,4.77
2019-05-12T08:41:04.906Z,3.87
2019-05-12T08:43:34.351Z,4.63
2019-05-12T08:46:07.008Z,4.40
2019-05-12T08:48:30.896Z,4.33
2019-05-12T08:50:58.426Z,4.23
2019-05-12T08:53:26.194Z,5.73
2019-05-12T08:55:53.971Z,3.57
2019-05-12T08:58:31.583Z,4.77
2019-05-12T09:00:50.759Z,4.93
2019-05-12T09:03:20.529Z,4.17
2019-05-12T09:05:47.528Z,2.40
2019-05-12T09:08:14.943Z,2.63
2019-05-12T09:10:44.981Z,3.37
2019-05-12T09:13:11.434Z,3.83
2019-05-12T09:15:38.901Z,5.63
2019-05-12T09:18:06.227Z,2.87
2019-05-12T09:20:39.959Z,3.90
2019-05-12T09:23:04.916Z,2.67
2019-05-12T09:25:34.113Z,2.30
2019-05-12T09:28:03.599Z,1.93
2019-05-12T09:30:30.773Z,3.40
2019-05-12T09:32:58.089Z,4.13
2019-05-12T09:35:28.583Z,3.27
2019-05-12T09:37:55.019Z,2.57
2019-05-12T09:40:24.663Z,4.27
2019-05-12T09:42:53.339Z,2.73
2019-05-12T09:45:21.112Z,4.33
2019-05-12T09:47:48.394Z,3.53
2019-05-12T09:50:20.100Z,2.93
2019-05-12T09:52:44.948Z,3.70
2019-05-12T09:55:14.623Z,2.70
2019-05-12T09:57:42.993Z,6.23
2019-05-12T10:00:13.595Z,3.30
2019-05-12T10:02:40.347Z,1.97
2019-05-12T10:05:07.754Z,3.87
2019-05-12T10:07:36.022Z,3.77
2019-05-12T10:10:04.017Z,2.97
2019-05-12T10:12:38.779Z,2.53
2019-05-12T10:15:04.099Z,4.17
2019-05-12T10:17:31.149Z,3.03
2019-05-12T10:19:58.534Z,2.30
2019-05-12T10:22:37.765Z,3.27
2019-05-12T10:25:05.469Z,4.83
2019-05-12T10:27:34.559Z,2.17
2019-05-12T10:30:03.179Z,2.27
2019-05-12T10:32:34.166Z,2.73
2019-05-12T10:35:01.491Z,3.50
2019-05-12T10:37:29.522Z,4.97
2019-05-12T10:39:56.871Z,3.90
2019-05-12T10:42:24.396Z,3.33
2019-05-12T10:44:54.426Z,2.03
2019-05-12T10:47:20.874Z,3.93
2019-05-12T10:49:48.183Z,3.00
2019-05-12T10:52:15.593Z,4.30
2019-05-12T10:54:43.423Z,2.60
2019-05-12T10:57:10.960Z,2.33
2019-05-12T10:59:45.151Z,2.53
2019-05-12T11:02:09.176Z,2.03
2019-05-12T11:04:41.227Z,1.50
2019-05-12T11:07:09.653Z,7.90
2019-05-12T11:09:37.492Z,4.10
2019-05-12T11:12:04.912Z,3.93
2019-05-12T11:14:34.172Z,2.80
2019-05-12T11:17:07.920Z,1.63
2019-05-12T11:19:34.158Z,2.83
2019-05-12T11:22:03.670Z,3.87
2019-05-12T11:24:33.528Z,1.77
2019-05-12T11:27:00.287Z,3.03
2019-05-12T11:29:27.595Z,2.07
2019-05-12T11:31:54.913Z,3.17
2019-05-12T11:34:22.280Z,3.83
2019-05-12T11:36:49.575Z,3.30
2019-05-12T11:39:16.857Z,2.40
2019-05-12T11:41:44.489Z,2.30
2019-05-12T11:44:13.192Z,1.80
2019-05-12T11:46:40.833Z,6.50
2019-05-12T11:49:09.622Z,3.00
2019-05-12T11:51:37.110Z,1.80
2019-05-12T11:54:08.974Z,3.73
2019-05-12T11:56:33.766Z,3.30
2019-05-12T11:59:01.097Z,3.60
2019-05-12T12:01:29.072Z,2.50
2019-05-12T12:03:56.462Z,1.70
2019-05-12T12:06:24.135Z,2.93
2019-05-12T12:08:53.536Z,1.50
2019-05-12T12:11:27.155Z,2.00
2019-05-12T12:13:53.401Z,2.03
2019-05-12T12:16:20.283Z,2.20
2019-05-12T12:18:52.100Z,3.43
2019-05-12T12:21:16.690Z,2.70
2019-05-12T12:23:48.798Z,1.53
2019-05-12T12:26:28.263Z,3.63
2019-05-12T12:28:53.814Z,1.27
2019-05-12T12:31:21.150Z,2.73
2019-05-12T12:33:48.492Z,3.83
2019-05-12T12:36:15.856Z,2.97
2019-05-12T12:38:44.037Z,1.37
2019-05-12T12:41:13.199Z,3.87
2019-05-12T12:43:40.649Z,2.10
2019-05-12T12:46:21.450Z,3.53
2019-05-12T12:48:46.470Z,3.00
2019-05-12T12:51:17.303Z,2.70
2019-05-12T12:53:43.791Z,3.27
2019-05-12T12:56:16.137Z,2.70
2019-05-12T12:58:40.478Z,2.17
2019-05-12T13:01:07.879Z,8.17
2019-05-12T13:03:35.246Z,3.73
2019-05-12T13:06:04.755Z,5.20
2019-05-12T13:08:34.099Z,2.67
2019-05-12T13:11:01.154Z,2.77
2019-05-12T13:13:28.406Z,3.93
2019-05-12T13:15:55.693Z,1.50
2019-05-12T13:18:30.212Z,3.17
2019-05-12T13:20:53.987Z,2.07
2019-05-12T13:23:34.754Z,1.97
2019-05-12T13:25:52.493Z,3.30
2019-05-12T13:28:22.749Z,3.43
2019-05-12T13:30:49.741Z,1.87
2019-05-12T13:33:18.421Z,2.90
2019-05-12T13:35:50.236Z,2.27
2019-05-12T13:38:14.969Z,2.20
2019-05-12T13:40:44.094Z,3.47
2019-05-12T13:43:15.577Z,2.50
2019-05-12T13:45:43.857Z,2.10
2019-05-12T13:48:15.806Z,2.67
2019-05-12T13:50:43.302Z,2.07
2019-05-12T13:53:11.016Z,3.10
2019-05-12T13:55:39.299Z,1.60
2019-05-12T13:58:07.884Z,2.80
2019-05-12T14:00:35.450Z,1.40
2019-05-12T14:03:08.186Z,2.73
2019-05-12T14:05:32.540Z,2.83
2019-05-12T14:07:59.839Z,2.73
2019-05-12T14:10:27.508Z,2.23
2019-05-12T14:12:55.228Z,4.73
2019-05-12T14:15:24.859Z,2.73
2019-05-12T14:17:54.042Z,2.30
2019-05-12T14:20:21.136Z,3.60
2019-05-12T14:22:49.538Z,3.67
2019-05-12T14:25:20.933Z,4.67
2019-05-12T14:27:46.151Z,5.40
2019-05-12T14:30:14.711Z,2.60
2019-05-12T14:32:44.014Z,3.53
2019-05-12T14:35:11.872Z,4.67
2019-05-12T14:37:40.464Z,2.70
2019-05-12T14:40:08.530Z,3.63
2019-05-12T14:42:39.693Z,6.17
2019-05-12T14:45:05.394Z,2.87
2019-05-12T14:47:34.074Z,3.20
2019-05-12T14:50:03.762Z,3.33
2019-05-12T14:52:33.332Z,2.23
2019-05-12T14:55:03.414Z,2.63
2019-05-12T14:57:37.411Z,2.83
2019-05-12T15:00:00.198Z,3.73
2019-05-12T15:02:29.401Z,2.83
2019-05-12T15:05:00.115Z,3.30
2019-05-12T15:07:28.037Z,2.97
2019-05-12T15:10:02.603Z,4.03
2019-05-12T15:12:24.616Z,3.13
2019-05-12T15:14:54.190Z,2.80
2019-05-12T15:17:24.151Z,1.67
2019-05-12T15:19:50.297Z,1.90
2019-05-12T15:22:17.616Z,2.43
2019-05-12T15:24:49.455Z,1.80
2019-05-12T15:27:15.225Z,3.53
2019-05-12T15:29:42.650Z,8.40
2019-05-12T15:32:10.023Z,2.50
2019-05-12T15:34:37.351Z,3.83
2019-05-12T15:37:04.627Z,5.37
2019-05-12T15:39:33.573Z,4.07
2019-05-12T15:42:03.321Z,1.87
2019-05-12T15:44:31.963Z,2.30
2019-05-12T15:47:00.666Z,3.27
2019-05-12T15:49:27.915Z,1.90
2019-05-12T15:51:58.482Z,4.73
2019-05-12T15:54:24.962Z,2.87
2019-05-12T15:56:53.268Z,2.43
2019-05-12T15:59:23.897Z,3.30
2019-05-12T16:01:53.153Z,4.17
2019-05-12T16:04:20.111Z,4.23
2019-05-12T16:06:53.698Z,3.97
2019-05-12T16:09:16.570Z,2.60
2019-05-12T16:11:43.929Z,2.60
2019-05-12T16:14:11.206Z,4.93
2019-05-12T16:16:42.373Z,3.30
2019-05-12T16:19:07.732Z,3.10
2019-05-12T16:21:35.059Z,4.77
2019-05-12T16:24:10.741Z,2.33
2019-05-12T16:26:33.449Z,3.00
2019-05-12T16:29:03.254Z,2.57
2019-05-12T16:31:30.254Z,2.07
2019-05-12T16:34:01.008Z,1.63
2019-05-12T16:36:27.129Z,1.83
2019-05-12T16:38:56.125Z,4.73
2019-05-12T16:41:28.026Z,4.67
2019-05-12T16:43:53.749Z,3.47
2019-05-12T16:46:23.363Z,3.13
2019-05-12T16:48:54.536Z,4.17
2019-05-12T16:51:19.943Z,3.30
2019-05-12T16:53:47.574Z,4.57
2019-05-12T16:56:19.859Z,4.53
2019-05-12T16:58:45.596Z,4.70
2019-05-12T17:01:14.451Z,4.90
2019-05-12T17:03:44.464Z,3.67
2019-05-12T17:06:13.710Z,5.03
2019-05-12T17:08:41.084Z,5.53
2019-05-12T17:11:24.215Z,2.73
2019-05-12T17:13:37.532Z,2.47
2019-05-12T17:16:05.010Z,3.20
2019-05-12T17:18:33.975Z,3.33
2019-05-12T17:21:04.047Z,3.20
2019-05-12T17:23:31.027Z,3.53
2019-05-12T17:25:58.599Z,4.47
2019-05-12T17:28:25.909Z,3.87
2019-05-12T17:30:54.346Z,6.00
2019-05-12T17:33:25.099Z,2.73
2019-05-12T17:38:19.738Z,4.23
2019-05-12T17:40:44.625Z,3.47
2019-05-12T17:43:12.227Z,4.07
2019-05-12T17:45:39.638Z,8.67
2019-05-12T17:48:07.785Z,8.87
2019-05-12T17:50:35.312Z,4.57
2019-05-12T17:53:04.506Z,6.90
2019-05-12T17:55:32.123Z,4.87
2019-05-12T17:57:59.490Z,5.97
2019-05-12T18:00:27.042Z,5.43
2019-05-12T18:03:05.951Z,5.27
2019-05-12T18:05:25.814Z,5.73
2019-05-12T18:07:55.528Z,3.77
2019-05-12T18:10:23.916Z,5.57
2019-05-12T18:12:53.427Z,4.90
2019-05-12T18:15:25.682Z,8.53
2019-05-12T18:17:50.196Z,5.77
2019-05-12T18:20:17.698Z,6.40
2019-05-12T18:22:46.973Z,6.37
2019-05-12T18:25:14.781Z,5.57
2019-05-12T18:27:48.057Z,6.43
2019-05-12T18:30:11.656Z,3.87
2019-05-12T18:32:38.913Z,8.20
2019-05-12T18:35:06.256Z,5.30
2019-05-12T18:37:34.403Z,6.40
2019-05-12T18:40:04.042Z,4.33
2019-05-12T18:42:33.714Z,4.73
2019-05-12T18:45:11.355Z,4.93
2019-05-12T18:47:33.364Z,6.60
2019-05-12T18:49:59.700Z,4.00
2019-05-12T18:52:29.452Z,5.23
2019-05-12T18:54:57.184Z,4.97
2019-05-12T18:57:24.725Z,3.90
2019-05-12T18:59:55.152Z,3.83
2019-05-12T19:02:23.382Z,6.83
2019-05-12T19:04:50.452Z,4.73
2019-05-12T19:07:17.754Z,5.67
2019-05-12T19:09:47.266Z,2.97
2019-05-12T19:12:17.830Z,4.33
2019-05-12T19:14:43.871Z,5.17
2019-05-12T19:17:13.968Z,4.60
2019-05-12T19:19:40.425Z,7.83
2019-05-12T19:22:09.681Z,6.60
2019-05-12T19:24:36.916Z,3.60
2019-05-12T19:27:04.519Z,5.97
2019-05-12T19:29:39.025Z,4.63
2019-05-12T19:32:01.048Z,3.93
2019-05-12T19:34:31.916Z,5.37
2019-05-12T19:36:57.572Z,6.67
2019-05-12T19:39:25.506Z,4.07
2019-05-12T19:41:54.368Z,5.20
2019-05-12T19:44:26.534Z,4.93
2019-05-12T19:46:51.170Z,6.60
2019-05-12T19:49:20.282Z,7.87
2019-05-12T19:51:47.778Z,4.07
2019-05-12T19:54:19.459Z,8.43
2019-05-12T19:56:44.302Z,5.40
2019-05-12T19:59:11.586Z,9.10
2019-05-12T20:01:38.881Z,5.37
2019-05-12T20:06:33.565Z,3.73
2019-05-12T20:09:06.470Z,4.20
2019-05-12T20:11:32.059Z,4.60
2019-05-12T20:13:59.446Z,6.50
2019-05-12T20:16:30.316Z,7.93
2019-05-12T20:18:57.920Z,5.93
2019-05-12T20:21:26.177Z,6.97
2019-05-12T20:23:54.671Z,6.63
2019-05-12T20:26:23.706Z,4.33
2019-05-12T20:28:55.035Z,4.07
2019-05-12T20:31:23.675Z,10.63
2019-05-12T20:33:49.554Z,4.53
2019-05-12T20:36:20.688Z,4.53
2019-05-12T20:38:47.227Z,4.63
2019-05-12T20:41:22.565Z,4.70
2019-05-12T20:43:46.079Z,5.07
2019-05-12T20:46:21.667Z,3.73
2019-05-12T20:48:44.611Z,5.03
2019-05-12T20:51:15.466Z,4.90
2019-05-12T20:53:43.402Z,6.17
2019-05-12T20:56:12.142Z,3.53
2019-05-12T20:58:43.662Z,6.27
2019-05-12T21:01:09.175Z,5.83
2019-05-12T21:03:39.861Z,4.47
2019-05-12T21:06:05.933Z,3.43
2019-05-12T21:08:33.902Z,7.83
2019-05-12T21:11:01.306Z,2.57
2019-05-12T21:13:31.818Z,4.97
2019-05-12T21:15:58.020Z,8.40
2019-05-12T21:18:25.753Z,13.40
2019-05-12T21:20:54.884Z,5.73
2019-05-12T21:23:24.087Z,4.50
2019-05-12T21:25:56.188Z,4.23
2019-05-12T21:28:23.645Z,6.03
2019-05-12T21:30:55.755Z,5.50
2019-05-12T21:33:24.031Z,5.60
2019-05-12T21:35:51.615Z,5.47
2019-05-12T21:38:27.542Z,6.20
2019-05-12T21:40:48.572Z,4.30
2019-05-12T21:43:15.943Z,9.27
2019-05-12T21:45:43.217Z,4.80
2019-05-12T21:48:16.490Z,7.87
2019-05-12T21:50:40.061Z,9.87
2019-05-12T21:53:10.259Z,4.77
2019-05-12T21:55:37.028Z,6.17
2019-05-12T21:58:10.716Z,4.73
2019-05-12T22:00:38.072Z,4.67
2019-05-12T22:03:08.140Z,6.80
2019-05-12T22:05:50.473Z,9.27
2019-05-12T22:08:06.785Z,7.00
2019-05-12T22:10:35.564Z,6.13
2019-05-12T22:13:07.388Z,8.57
2019-05-12T22:15:33.805Z,7.97
2019-05-12T22:18:04.217Z,5.90
2019-05-12T22:20:31.660Z,4.97
2019-05-12T22:23:00.768Z,9.00
2019-05-12T22:25:29.776Z,4.47
2019-05-12T22:27:59.310Z,4.73
2019-05-12T22:30:28.879Z,7.57
2019-05-12T22:32:59.436Z,4.57
2019-05-12T22:35:26.832Z,7.87
2019-05-12T22:37:54.406Z,6.10
2019-05-12T22:40:23.607Z,4.47
2019-05-12T22:43:09.743Z,4.00
2019-05-12T22:45:44.229Z,5.03
2019-05-12T22:48:11.572Z,5.60
